sensor_id;sensor_type;location;lat;lon;timestamp;P1;durP1;ratioP1;P2;durP2;ratioP2
40931;SDS011;36257;46.052;12.540;2022-11-24T00:01:05;9.50;;;8.60;;
40931;SDS011;36257;46.052;12.540;2022-11-24T00:03:32;8.02;;;7.32;;
40931;SDS011;36257;46.052;12.540;2022-11-24T00:06:31;9.40;;;8.50;;
40931;SDS011;36257;46.052;12.540;2022-11-24T00:08:50;10.77;;;8.30;;
40931;SDS011;36257;46.052;12.540;2022-11-24T00:11:26;8.30;;;7.60;;
40931;SDS011;36257;46.052;12.540;2022-11-24T00:13:53;7.97;;;7.07;;
40931;SDS011;36257;46.052;12.540;2022-11-24T00:16:20;7.60;;;6.90;;
40931;SDS011;36257;46.052;12.540;2022-11-24T00:18:51;7.10;;;6.33;;
40931;SDS011;36257;46.052;12.540;2022-11-24T00:21:18;19.30;;;8.87;;
40931;SDS011;36257;46.052;12.540;2022-11-24T00:23:45;10.60;;;9.00;;
40931;SDS011;36257;46.052;12.540;2022-11-24T00:26:12;8.73;;;7.53;;
40931;SDS011;36257;46.052;12.540;2022-11-24T00:28:39;7.67;;;6.83;;
40931;SDS011;36257;46.052;12.540;2022-11-24T00:31:19;10.85;;;7.25;;
40931;SDS011;36257;46.052;12.540;2022-11-24T00:33:50;6.97;;;6.27;;
40931;SDS011;36257;46.052;12.540;2022-11-24T00:36:19;7.13;;;5.53;;
40931;SDS011;36257;46.052;12.540;2022-11-24T00:38:46;6.93;;;6.23;;
40931;SDS011;36257;46.052;12.540;2022-11-24T00:41:16;7.30;;;6.20;;
40931;SDS011;36257;46.052;12.540;2022-11-24T00:43:42;6.37;;;5.77;;
40931;SDS011;36257;46.052;12.540;2022-11-24T00:46:07;6.30;;;5.80;;
40931;SDS011;36257;46.052;12.540;2022-11-24T00:48:33;6.27;;;5.77;;
40931;SDS011;36257;46.052;12.540;2022-11-24T00:51:00;5.37;;;4.97;;
40931;SDS011;36257;46.052;12.540;2022-11-24T00:53:28;7.70;;;5.43;;
40931;SDS011;36257;46.052;12.540;2022-11-24T00:55:54;5.80;;;5.33;;
40931;SDS011;36257;46.052;12.540;2022-11-24T00:58:20;5.90;;;5.43;;
40931;SDS011;36257;46.052;12.540;2022-11-24T01:00:47;5.90;;;5.40;;
40931;SDS011;36257;46.052;12.540;2022-11-24T01:03:13;5.80;;;5.30;;
40931;SDS011;36257;46.052;12.540;2022-11-24T01:05:40;5.87;;;5.10;;
40931;SDS011;36257;46.052;12.540;2022-11-24T01:08:05;5.50;;;5.10;;
40931;SDS011;36257;46.052;12.540;2022-11-24T01:10:31;5.30;;;4.80;;
40931;SDS011;36257;46.052;12.540;2022-11-24T01:12:57;5.57;;;5.07;;
40931;SDS011;36257;46.052;12.540;2022-11-24T01:15:24;5.80;;;5.40;;
40931;SDS011;36257;46.052;12.540;2022-11-24T01:17:49;5.43;;;4.93;;
40931;SDS011;36257;46.052;12.540;2022-11-24T01:20:15;5.13;;;4.73;;
40931;SDS011;36257;46.052;12.540;2022-11-24T01:22:41;5.13;;;4.73;;
40931;SDS011;36257;46.052;12.540;2022-11-24T01:25:07;5.20;;;4.73;;
40931;SDS011;36257;46.052;12.540;2022-11-24T01:27:36;4.53;;;4.20;;
40931;SDS011;36257;46.052;12.540;2022-11-24T01:30:03;5.17;;;4.77;;
40931;SDS011;36257;46.052;12.540;2022-11-24T01:32:30;4.50;;;4.10;;
40931;SDS011;36257;46.052;12.540;2022-11-24T01:34:57;4.75;;;4.35;;
40931;SDS011;36257;46.052;12.540;2022-11-24T01:37:23;4.30;;;4.00;;
40931;SDS011;36257;46.052;12.540;2022-11-24T01:39:49;4.50;;;4.20;;
40931;SDS011;36257;46.052;12.540;2022-11-24T01:42:14;4.73;;;4.37;;
40931;SDS011;36257;46.052;12.540;2022-11-24T01:44:40;5.23;;;4.53;;
40931;SDS011;36257;46.052;12.540;2022-11-24T01:49:46;4.90;;;4.50;;
40931;SDS011;36257;46.052;12.540;2022-11-24T01:52:20;6.63;;;5.70;;
40931;SDS011;36257;46.052;12.540;2022-11-24T01:54:51;5.00;;;4.60;;
40931;SDS011;36257;46.052;12.540;2022-11-24T01:57:24;5.30;;;4.90;;
40931;SDS011;36257;46.052;12.540;2022-11-24T01:59:55;5.47;;;4.97;;
40931;SDS011;36257;46.052;12.540;2022-11-24T02:02:26;5.10;;;4.70;;
40931;SDS011;36257;46.052;12.540;2022-11-24T02:04:53;7.40;;;5.72;;
40931;SDS011;36257;46.052;12.540;2022-11-24T02:07:22;4.80;;;4.40;;
40931;SDS011;36257;46.052;12.540;2022-11-24T02:09:58;5.80;;;5.30;;
40931;SDS011;36257;46.052;12.540;2022-11-24T02:12:28;5.97;;;5.47;;
40931;SDS011;36257;46.052;12.540;2022-11-24T02:14:54;5.03;;;4.43;;
40931;SDS011;36257;46.052;12.540;2022-11-24T02:17:20;5.37;;;4.87;;
40931;SDS011;36257;46.052;12.540;2022-11-24T02:19:53;5.23;;;4.90;;
40931;SDS011;36257;46.052;12.540;2022-11-24T02:27:23;5.33;;;4.80;;
40931;SDS011;36257;46.052;12.540;2022-11-24T02:29:49;5.30;;;4.57;;
40931;SDS011;36257;46.052;12.540;2022-11-24T02:32:15;5.70;;;5.17;;
40931;SDS011;36257;46.052;12.540;2022-11-24T02:34:42;5.63;;;5.10;;
40931;SDS011;36257;46.052;12.540;2022-11-24T02:37:07;8.10;;;5.77;;
40931;SDS011;36257;46.052;12.540;2022-11-24T02:39:33;5.13;;;4.73;;
40931;SDS011;36257;46.052;12.540;2022-11-24T02:42:00;4.77;;;4.40;;
40931;SDS011;36257;46.052;12.540;2022-11-24T02:44:31;5.20;;;4.73;;
40931;SDS011;36257;46.052;12.540;2022-11-24T02:47:06;4.97;;;4.47;;
40931;SDS011;36257;46.052;12.540;2022-11-24T02:49:33;6.50;;;5.57;;
40931;SDS011;36257;46.052;12.540;2022-11-24T02:51:59;6.17;;;5.57;;
40931;SDS011;36257;46.052;12.540;2022-11-24T02:54:25;5.57;;;5.10;;
40931;SDS011;36257;46.052;12.540;2022-11-24T02:56:51;6.77;;;6.27;;
40931;SDS011;36257;46.052;12.540;2022-11-24T02:59:16;7.07;;;5.33;;
40931;SDS011;36257;46.052;12.540;2022-11-24T03:01:42;5.97;;;5.07;;
40931;SDS011;36257;46.052;12.540;2022-11-24T03:04:08;5.77;;;5.27;;
40931;SDS011;36257;46.052;12.540;2022-11-24T03:06:34;5.43;;;5.03;;
40931;SDS011;36257;46.052;12.540;2022-11-24T03:08:59;6.43;;;5.33;;
40931;SDS011;36257;46.052;12.540;2022-11-24T03:11:25;5.37;;;4.97;;
40931;SDS011;36257;46.052;12.540;2022-11-24T03:13:51;6.43;;;5.93;;
40931;SDS011;36257;46.052;12.540;2022-11-24T03:16:17;4.40;;;4.10;;
40931;SDS011;36257;46.052;12.540;2022-11-24T03:18:42;5.60;;;5.17;;
40931;SDS011;36257;46.052;12.540;2022-11-24T03:21:08;5.30;;;4.90;;
40931;SDS011;36257;46.052;12.540;2022-11-24T03:23:33;6.53;;;4.87;;
40931;SDS011;36257;46.052;12.540;2022-11-24T03:26:06;5.03;;;4.63;;
40931;SDS011;36257;46.052;12.540;2022-11-24T03:28:33;4.80;;;4.40;;
40931;SDS011;36257;46.052;12.540;2022-11-24T03:30:58;5.20;;;4.80;;
40931;SDS011;36257;46.052;12.540;2022-11-24T03:33:24;4.83;;;4.53;;
40931;SDS011;36257;46.052;12.540;2022-11-24T03:35:49;4.77;;;4.47;;
40931;SDS011;36257;46.052;12.540;2022-11-24T03:38:15;5.57;;;5.17;;
40931;SDS011;36257;46.052;12.540;2022-11-24T03:40:41;5.00;;;4.60;;
40931;SDS011;36257;46.052;12.540;2022-11-24T03:43:06;5.60;;;5.10;;
40931;SDS011;36257;46.052;12.540;2022-11-24T03:45:32;5.70;;;5.07;;
40931;SDS011;36257;46.052;12.540;2022-11-24T03:47:57;5.80;;;5.40;;
40931;SDS011;36257;46.052;12.540;2022-11-24T03:50:23;6.07;;;5.47;;
40931;SDS011;36257;46.052;12.540;2022-11-24T03:52:49;6.03;;;5.63;;
40931;SDS011;36257;46.052;12.540;2022-11-24T03:55:14;4.80;;;4.43;;
40931;SDS011;36257;46.052;12.540;2022-11-24T03:57:40;5.40;;;5.00;;
40931;SDS011;36257;46.052;12.540;2022-11-24T04:00:06;4.90;;;4.53;;
40931;SDS011;36257;46.052;12.540;2022-11-24T04:02:32;5.27;;;4.97;;
40931;SDS011;36257;46.052;12.540;2022-11-24T04:04:58;4.53;;;4.13;;
40931;SDS011;36257;46.052;12.540;2022-11-24T04:07:23;5.23;;;4.77;;
40931;SDS011;36257;46.052;12.540;2022-11-24T04:09:49;4.73;;;4.23;;
40931;SDS011;36257;46.052;12.540;2022-11-24T04:12:14;4.53;;;4.23;;
40931;SDS011;36257;46.052;12.540;2022-11-24T04:14:58;4.90;;;4.53;;
40931;SDS011;36257;46.052;12.540;2022-11-24T04:17:24;5.30;;;4.97;;
40931;SDS011;36257;46.052;12.540;2022-11-24T04:19:50;5.50;;;5.10;;
40931;SDS011;36257;46.052;12.540;2022-11-24T04:22:15;5.87;;;5.37;;
40931;SDS011;36257;46.052;12.540;2022-11-24T04:24:41;4.93;;;4.47;;
40931;SDS011;36257;46.052;12.540;2022-11-24T04:27:06;5.47;;;4.97;;
40931;SDS011;36257;46.052;12.540;2022-11-24T04:29:32;6.63;;;5.93;;
40931;SDS011;36257;46.052;12.540;2022-11-24T04:31:57;4.97;;;4.67;;
40931;SDS011;36257;46.052;12.540;2022-11-24T04:34:23;5.23;;;4.57;;
40931;SDS011;36257;46.052;12.540;2022-11-24T04:36:49;5.47;;;5.07;;
40931;SDS011;36257;46.052;12.540;2022-11-24T04:39:14;5.10;;;4.73;;
40931;SDS011;36257;46.052;12.540;2022-11-24T04:41:40;5.13;;;4.73;;
40931;SDS011;36257;46.052;12.540;2022-11-24T04:44:05;5.00;;;4.60;;
40931;SDS011;36257;46.052;12.540;2022-11-24T04:46:31;5.13;;;4.80;;
40931;SDS011;36257;46.052;12.540;2022-11-24T04:48:56;5.53;;;5.13;;
40931;SDS011;36257;46.052;12.540;2022-11-24T04:51:22;5.77;;;5.27;;
40931;SDS011;36257;46.052;12.540;2022-11-24T04:53:48;4.70;;;4.40;;
40931;SDS011;36257;46.052;12.540;2022-11-24T04:56:13;4.53;;;4.23;;
40931;SDS011;36257;46.052;12.540;2022-11-24T04:58:39;5.00;;;4.70;;
40931;SDS011;36257;46.052;12.540;2022-11-24T05:01:05;5.00;;;4.70;;
40931;SDS011;36257;46.052;12.540;2022-11-24T05:03:32;4.70;;;4.40;;
40931;SDS011;36257;46.052;12.540;2022-11-24T05:05:59;5.27;;;4.87;;
40931;SDS011;36257;46.052;12.540;2022-11-24T05:08:24;6.93;;;6.27;;
40931;SDS011;36257;46.052;12.540;2022-11-24T05:10:50;6.90;;;6.17;;
40931;SDS011;36257;46.052;12.540;2022-11-24T05:13:15;4.40;;;4.10;;
40931;SDS011;36257;46.052;12.540;2022-11-24T05:15:41;5.83;;;5.20;;
40931;SDS011;36257;46.052;12.540;2022-11-24T05:18:07;4.37;;;4.03;;
40931;SDS011;36257;46.052;12.540;2022-11-24T05:20:36;7.10;;;4.87;;
40931;SDS011;36257;46.052;12.540;2022-11-24T05:23:05;5.20;;;4.07;;
40931;SDS011;36257;46.052;12.540;2022-11-24T05:25:33;4.20;;;3.80;;
40931;SDS011;36257;46.052;12.540;2022-11-24T05:28:02;5.47;;;4.97;;
40931;SDS011;36257;46.052;12.540;2022-11-24T05:30:29;5.70;;;5.07;;
40931;SDS011;36257;46.052;12.540;2022-11-24T05:32:56;5.93;;;5.10;;
40931;SDS011;36257;46.052;12.540;2022-11-24T05:35:28;7.90;;;4.80;;
40931;SDS011;36257;46.052;12.540;2022-11-24T05:37:56;5.18;;;4.78;;
40931;SDS011;36257;46.052;12.540;2022-11-24T05:40:23;5.60;;;4.90;;
40931;SDS011;36257;46.052;12.540;2022-11-24T05:42:49;5.87;;;5.37;;
40931;SDS011;36257;46.052;12.540;2022-11-24T05:45:16;6.17;;;5.67;;
40931;SDS011;36257;46.052;12.540;2022-11-24T05:47:44;5.47;;;5.07;;
40931;SDS011;36257;46.052;12.540;2022-11-24T05:50:12;4.18;;;3.92;;
40931;SDS011;36257;46.052;12.540;2022-11-24T05:52:39;4.70;;;4.40;;
40931;SDS011;36257;46.052;12.540;2022-11-24T05:55:04;5.33;;;4.97;;
40931;SDS011;36257;46.052;12.540;2022-11-24T05:57:31;5.88;;;5.28;;
40931;SDS011;36257;46.052;12.540;2022-11-24T05:59:57;6.40;;;5.27;;
40931;SDS011;36257;46.052;12.540;2022-11-24T06:02:23;5.23;;;4.83;;
40931;SDS011;36257;46.052;12.540;2022-11-24T06:04:49;6.40;;;5.87;;
40931;SDS011;36257;46.052;12.540;2022-11-24T06:07:14;9.83;;;8.93;;
40931;SDS011;36257;46.052;12.540;2022-11-24T06:09:40;8.30;;;7.60;;
40931;SDS011;36257;46.052;12.540;2022-11-24T06:12:07;8.20;;;7.60;;
40931;SDS011;36257;46.052;12.540;2022-11-24T06:17:00;7.50;;;6.87;;
40931;SDS011;36257;46.052;12.540;2022-11-24T06:19:26;5.63;;;5.23;;
40931;SDS011;36257;46.052;12.540;2022-11-24T06:21:52;5.70;;;5.33;;
40931;SDS011;36257;46.052;12.540;2022-11-24T06:24:17;5.90;;;5.40;;
40931;SDS011;36257;46.052;12.540;2022-11-24T06:26:43;4.23;;;4.00;;
40931;SDS011;36257;46.052;12.540;2022-11-24T06:29:09;5.03;;;4.50;;
40931;SDS011;36257;46.052;12.540;2022-11-24T06:31:34;5.17;;;4.67;;
40931;SDS011;36257;46.052;12.540;2022-11-24T06:34:00;6.20;;;5.23;;
40931;SDS011;36257;46.052;12.540;2022-11-24T06:36:26;6.80;;;5.53;;
40931;SDS011;36257;46.052;12.540;2022-11-24T06:38:52;5.53;;;5.10;;
40931;SDS011;36257;46.052;12.540;2022-11-24T06:41:18;4.13;;;3.83;;
40931;SDS011;36257;46.052;12.540;2022-11-24T06:43:44;4.90;;;4.50;;
40931;SDS011;36257;46.052;12.540;2022-11-24T06:46:11;4.60;;;4.20;;
40931;SDS011;36257;46.052;12.540;2022-11-24T06:48:37;5.13;;;4.83;;
40931;SDS011;36257;46.052;12.540;2022-11-24T06:51:04;6.20;;;5.70;;
40931;SDS011;36257;46.052;12.540;2022-11-24T06:53:32;6.33;;;5.83;;
40931;SDS011;36257;46.052;12.540;2022-11-24T06:56:02;5.17;;;4.77;;
40931;SDS011;36257;46.052;12.540;2022-11-24T06:58:32;4.50;;;4.10;;
40931;SDS011;36257;46.052;12.540;2022-11-24T07:00:58;4.87;;;4.57;;
40931;SDS011;36257;46.052;12.540;2022-11-24T07:03:24;4.80;;;4.53;;
40931;SDS011;36257;46.052;12.540;2022-11-24T07:05:56;4.63;;;4.23;;
40931;SDS011;36257;46.052;12.540;2022-11-24T07:08:21;4.73;;;4.43;;
40931;SDS011;36257;46.052;12.540;2022-11-24T07:10:47;4.97;;;4.57;;
40931;SDS011;36257;46.052;12.540;2022-11-24T07:13:13;5.17;;;4.83;;
40931;SDS011;36257;46.052;12.540;2022-11-24T07:15:38;5.07;;;4.63;;
40931;SDS011;36257;46.052;12.540;2022-11-24T07:18:04;4.47;;;4.17;;
40931;SDS011;36257;46.052;12.540;2022-11-24T07:20:30;4.83;;;4.53;;
40931;SDS011;36257;46.052;12.540;2022-11-24T07:22:56;5.13;;;4.83;;
40931;SDS011;36257;46.052;12.540;2022-11-24T07:25:23;4.53;;;4.23;;
40931;SDS011;36257;46.052;12.540;2022-11-24T07:27:54;6.65;;;4.60;;
40931;SDS011;36257;46.052;12.540;2022-11-24T07:30:23;4.07;;;3.80;;
40931;SDS011;36257;46.052;12.540;2022-11-24T07:32:50;4.30;;;4.00;;
40931;SDS011;36257;46.052;12.540;2022-11-24T07:35:16;5.50;;;5.10;;
40931;SDS011;36257;46.052;12.540;2022-11-24T07:37:42;12.50;;;11.13;;
40931;SDS011;36257;46.052;12.540;2022-11-24T07:40:08;27.63;;;23.07;;
40931;SDS011;36257;46.052;12.540;2022-11-24T07:42:34;12.13;;;10.83;;
40931;SDS011;36257;46.052;12.540;2022-11-24T07:45:00;6.97;;;6.37;;
40931;SDS011;36257;46.052;12.540;2022-11-24T07:47:25;8.00;;;7.20;;
40931;SDS011;36257;46.052;12.540;2022-11-24T07:49:51;4.80;;;4.47;;
40931;SDS011;36257;46.052;12.540;2022-11-24T07:52:17;6.00;;;5.50;;
40931;SDS011;36257;46.052;12.540;2022-11-24T07:54:42;6.03;;;5.53;;
40931;SDS011;36257;46.052;12.540;2022-11-24T07:57:08;6.53;;;5.32;;
40931;SDS011;36257;46.052;12.540;2022-11-24T07:59:33;6.57;;;5.95;;
40931;SDS011;36257;46.052;12.540;2022-11-24T08:01:59;9.35;;;7.88;;
40931;SDS011;36257;46.052;12.540;2022-11-24T08:04:24;8.63;;;7.82;;
40931;SDS011;36257;46.052;12.540;2022-11-24T08:06:50;8.48;;;7.78;;
40931;SDS011;36257;46.052;12.540;2022-11-24T08:09:16;11.20;;;8.25;;
40931;SDS011;36257;46.052;12.540;2022-11-24T08:11:41;10.18;;;9.00;;
40931;SDS011;36257;46.052;12.540;2022-11-24T08:14:07;10.77;;;9.68;;
40931;SDS011;36257;46.052;12.540;2022-11-24T08:16:32;10.10;;;9.05;;
40931;SDS011;36257;46.052;12.540;2022-11-24T08:18:58;14.45;;;12.57;;
40931;SDS011;36257;46.052;12.540;2022-11-24T08:21:24;17.27;;;12.90;;
40931;SDS011;36257;46.052;12.540;2022-11-24T08:23:54;14.23;;;12.73;;
40931;SDS011;36257;46.052;12.540;2022-11-24T08:26:21;13.50;;;12.10;;
40931;SDS011;36257;46.052;12.540;2022-11-24T08:31:17;13.02;;;10.25;;
40931;SDS011;36257;46.052;12.540;2022-11-24T08:33:43;14.65;;;12.50;;
40931;SDS011;36257;46.052;12.540;2022-11-24T08:36:10;13.10;;;11.80;;
40931;SDS011;36257;46.052;12.540;2022-11-24T08:38:38;14.90;;;12.55;;
40931;SDS011;36257;46.052;12.540;2022-11-24T08:41:06;16.58;;;12.88;;
40931;SDS011;36257;46.052;12.540;2022-11-24T08:43:35;15.55;;;11.68;;
40931;SDS011;36257;46.052;12.540;2022-11-24T08:46:08;14.60;;;12.82;;
40931;SDS011;36257;46.052;12.540;2022-11-24T08:48:36;17.33;;;13.60;;
40931;SDS011;36257;46.052;12.540;2022-11-24T08:51:06;18.65;;;14.63;;
40931;SDS011;36257;46.052;12.540;2022-11-24T08:53:33;16.98;;;15.02;;
40931;SDS011;36257;46.052;12.540;2022-11-24T08:55:59;18.95;;;15.50;;
40931;SDS011;36257;46.052;12.540;2022-11-24T08:58:25;16.92;;;14.88;;
40931;SDS011;36257;46.052;12.540;2022-11-24T09:00:52;20.87;;;17.70;;
40931;SDS011;36257;46.052;12.540;2022-11-24T09:03:17;19.55;;;17.67;;
40931;SDS011;36257;46.052;12.540;2022-11-24T09:05:43;19.38;;;17.30;;
40931;SDS011;36257;46.052;12.540;2022-11-24T09:08:08;19.92;;;17.92;;
40931;SDS011;36257;46.052;12.540;2022-11-24T09:10:34;20.42;;;18.35;;
40931;SDS011;36257;46.052;12.540;2022-11-24T09:13:00;22.23;;;18.70;;
40931;SDS011;36257;46.052;12.540;2022-11-24T09:15:26;20.42;;;18.25;;
40931;SDS011;36257;46.052;12.540;2022-11-24T09:17:51;17.70;;;15.95;;
40931;SDS011;36257;46.052;12.540;2022-11-24T09:20:17;15.95;;;14.32;;
40931;SDS011;36257;46.052;12.540;2022-11-24T09:22:43;15.90;;;14.25;;
40931;SDS011;36257;46.052;12.540;2022-11-24T09:25:08;16.45;;;14.73;;
40931;SDS011;36257;46.052;12.540;2022-11-24T09:27:34;19.23;;;15.65;;
40931;SDS011;36257;46.052;12.540;2022-11-24T09:30:00;15.90;;;14.35;;
40931;SDS011;36257;46.052;12.540;2022-11-24T09:32:27;17.58;;;15.70;;
40931;SDS011;36257;46.052;12.540;2022-11-24T09:37:20;17.65;;;15.77;;
40931;SDS011;36257;46.052;12.540;2022-11-24T09:39:45;19.35;;;17.33;;
40931;SDS011;36257;46.052;12.540;2022-11-24T09:42:13;18.25;;;16.10;;
40931;SDS011;36257;46.052;12.540;2022-11-24T09:49:49;18.77;;;16.83;;
40931;SDS011;36257;46.052;12.540;2022-11-24T10:00:53;22.30;;;17.95;;
40931;SDS011;36257;46.052;12.540;2022-11-24T10:03:24;20.23;;;16.80;;
40931;SDS011;36257;46.052;12.540;2022-11-24T10:17:11;14.68;;;11.93;;
40931;SDS011;36257;46.052;12.540;2022-11-24T10:22:46;16.85;;;12.35;;
40931;SDS011;36257;46.052;12.540;2022-11-24T10:25:29;14.27;;;12.25;;
40931;SDS011;36257;46.052;12.540;2022-11-24T10:28:15;15.40;;;13.70;;
40931;SDS011;36257;46.052;12.540;2022-11-24T10:30:41;17.02;;;14.20;;
40931;SDS011;36257;46.052;12.540;2022-11-24T10:35:47;17.20;;;14.43;;
40931;SDS011;36257;46.052;12.540;2022-11-24T10:38:41;17.90;;;14.48;;
40931;SDS011;36257;46.052;12.540;2022-11-24T10:41:22;16.15;;;13.57;;
40931;SDS011;36257;46.052;12.540;2022-11-24T10:44:12;17.02;;;13.18;;
40931;SDS011;36257;46.052;12.540;2022-11-24T10:46:39;15.43;;;13.30;;
40931;SDS011;36257;46.052;12.540;2022-11-24T10:49:05;18.30;;;15.07;;
40931;SDS011;36257;46.052;12.540;2022-11-24T10:54:18;17.08;;;14.23;;
40931;SDS011;36257;46.052;12.540;2022-11-24T10:56:46;17.38;;;15.18;;
40931;SDS011;36257;46.052;12.540;2022-11-24T11:01:49;15.48;;;13.38;;
40931;SDS011;36257;46.052;12.540;2022-11-24T11:04:17;17.73;;;14.73;;
40931;SDS011;36257;46.052;12.540;2022-11-24T11:06:45;16.15;;;14.02;;
40931;SDS011;36257;46.052;12.540;2022-11-24T11:09:17;16.25;;;14.45;;
40931;SDS011;36257;46.052;12.540;2022-11-24T11:11:45;16.23;;;14.63;;
40931;SDS011;36257;46.052;12.540;2022-11-24T11:17:00;17.00;;;14.48;;
40931;SDS011;36257;46.052;12.540;2022-11-24T11:24:37;21.15;;;16.40;;
40931;SDS011;36257;46.052;12.540;2022-11-24T11:29:40;19.15;;;15.43;;
40931;SDS011;36257;46.052;12.540;2022-11-24T11:32:26;16.30;;;14.55;;
40931;SDS011;36257;46.052;12.540;2022-11-24T11:34:53;16.73;;;14.80;;
40931;SDS011;36257;46.052;12.540;2022-11-24T11:37:25;18.20;;;13.70;;
40931;SDS011;36257;46.052;12.540;2022-11-24T11:39:54;16.83;;;15.02;;
40931;SDS011;36257;46.052;12.540;2022-11-24T11:53:46;16.95;;;15.15;;
40931;SDS011;36257;46.052;12.540;2022-11-24T12:01:44;18.13;;;14.68;;
40931;SDS011;36257;46.052;12.540;2022-11-24T12:12:42;16.13;;;13.38;;
40931;SDS011;36257;46.052;12.540;2022-11-24T12:15:45;17.15;;;13.52;;
40931;SDS011;36257;46.052;12.540;2022-11-24T12:21:46;19.15;;;16.13;;
40931;SDS011;36257;46.052;12.540;2022-11-24T12:24:25;20.00;;;16.52;;
40931;SDS011;36257;46.052;12.540;2022-11-24T12:26:57;22.50;;;16.50;;
40931;SDS011;36257;46.052;12.540;2022-11-24T12:34:56;20.85;;;15.73;;
40931;SDS011;36257;46.052;12.540;2022-11-24T12:51:35;18.55;;;15.25;;
40931;SDS011;36257;46.052;12.540;2022-11-24T12:54:05;18.02;;;14.50;;
40931;SDS011;36257;46.052;12.540;2022-11-24T12:59:38;18.15;;;15.45;;
40931;SDS011;36257;46.052;12.540;2022-11-24T13:07:52;35.38;;;15.25;;
40931;SDS011;36257;46.052;12.540;2022-11-24T13:16:05;15.48;;;13.43;;
40931;SDS011;36257;46.052;12.540;2022-11-24T13:24:05;14.85;;;12.48;;
40931;SDS011;36257;46.052;12.540;2022-11-24T13:26:45;15.55;;;13.18;;
40931;SDS011;36257;46.052;12.540;2022-11-24T13:40:01;13.95;;;12.45;;
40931;SDS011;36257;46.052;12.540;2022-11-24T13:58:46;15.10;;;13.35;;
40931;SDS011;36257;46.052;12.540;2022-11-24T14:08:58;13.75;;;12.35;;
40931;SDS011;36257;46.052;12.540;2022-11-24T14:11:25;15.38;;;12.98;;
40931;SDS011;36257;46.052;12.540;2022-11-24T14:13:53;14.45;;;12.95;;
40931;SDS011;36257;46.052;12.540;2022-11-24T14:16:20;19.13;;;13.77;;
40931;SDS011;36257;46.052;12.540;2022-11-24T14:18:48;19.67;;;14.00;;
40931;SDS011;36257;46.052;12.540;2022-11-24T14:23:44;16.90;;;14.13;;
40931;SDS011;36257;46.052;12.540;2022-11-24T14:26:23;17.13;;;12.80;;
40931;SDS011;36257;46.052;12.540;2022-11-24T14:29:02;15.30;;;12.50;;
40931;SDS011;36257;46.052;12.540;2022-11-24T14:31:29;14.60;;;13.10;;
40931;SDS011;36257;46.052;12.540;2022-11-24T14:36:35;17.77;;;13.85;;
40931;SDS011;36257;46.052;12.540;2022-11-24T14:39:12;15.27;;;12.70;;
40931;SDS011;36257;46.052;12.540;2022-11-24T14:41:49;17.95;;;14.55;;
40931;SDS011;36257;46.052;12.540;2022-11-24T14:44:22;18.65;;;15.40;;
40931;SDS011;36257;46.052;12.540;2022-11-24T14:46:59;15.25;;;11.13;;
40931;SDS011;36257;46.052;12.540;2022-11-24T14:49:26;10.77;;;8.25;;
40931;SDS011;36257;46.052;12.540;2022-11-24T14:51:56;11.85;;;8.77;;
40931;SDS011;36257;46.052;12.540;2022-11-24T14:54:25;10.15;;;8.88;;
40931;SDS011;36257;46.052;12.540;2022-11-24T14:56:56;10.88;;;9.57;;
40931;SDS011;36257;46.052;12.540;2022-11-24T14:59:28;11.60;;;9.18;;
40931;SDS011;36257;46.052;12.540;2022-11-24T15:01:55;15.85;;;11.43;;
40931;SDS011;36257;46.052;12.540;2022-11-24T15:04:22;13.27;;;9.38;;
40931;SDS011;36257;46.052;12.540;2022-11-24T15:09:49;10.30;;;8.82;;
40931;SDS011;36257;46.052;12.540;2022-11-24T15:14:52;34.45;;;12.07;;
40931;SDS011;36257;46.052;12.540;2022-11-24T15:17:24;24.85;;;12.02;;
40931;SDS011;36257;46.052;12.540;2022-11-24T15:19:57;20.05;;;9.52;;
40931;SDS011;36257;46.052;12.540;2022-11-24T15:22:34;20.15;;;10.07;;
40931;SDS011;36257;46.052;12.540;2022-11-24T15:25:00;14.50;;;10.02;;
40931;SDS011;36257;46.052;12.540;2022-11-24T15:27:25;12.55;;;8.65;;
40931;SDS011;36257;46.052;12.540;2022-11-24T15:29:51;10.32;;;7.30;;
40931;SDS011;36257;46.052;12.540;2022-11-24T15:32:17;10.80;;;8.07;;
40931;SDS011;36257;46.052;12.540;2022-11-24T15:34:43;9.05;;;7.22;;
40931;SDS011;36257;46.052;12.540;2022-11-24T15:37:09;9.15;;;6.63;;
40931;SDS011;36257;46.052;12.540;2022-11-24T15:39:35;7.45;;;6.63;;
40931;SDS011;36257;46.052;12.540;2022-11-24T15:42:00;7.57;;;6.78;;
40931;SDS011;36257;46.052;12.540;2022-11-24T15:44:26;7.78;;;6.50;;
40931;SDS011;36257;46.052;12.540;2022-11-24T15:46:52;10.55;;;8.93;;
40931;SDS011;36257;46.052;12.540;2022-11-24T15:49:19;12.55;;;9.60;;
40931;SDS011;36257;46.052;12.540;2022-11-24T15:51:45;10.52;;;8.02;;
40931;SDS011;36257;46.052;12.540;2022-11-24T15:54:12;8.90;;;6.75;;
40931;SDS011;36257;46.052;12.540;2022-11-24T15:56:40;7.47;;;6.78;;
40931;SDS011;36257;46.052;12.540;2022-11-24T15:59:08;7.00;;;6.40;;
40931;SDS011;36257;46.052;12.540;2022-11-24T16:01:38;7.90;;;6.10;;
40931;SDS011;36257;46.052;12.540;2022-11-24T16:04:04;7.38;;;5.95;;
40931;SDS011;36257;46.052;12.540;2022-11-24T16:06:29;14.88;;;11.27;;
40931;SDS011;36257;46.052;12.540;2022-11-24T16:08:56;11.00;;;8.55;;
40931;SDS011;36257;46.052;12.540;2022-11-24T16:11:22;8.85;;;7.95;;
40931;SDS011;36257;46.052;12.540;2022-11-24T16:13:48;10.30;;;7.95;;
40931;SDS011;36257;46.052;12.540;2022-11-24T16:16:14;8.50;;;7.70;;
40931;SDS011;36257;46.052;12.540;2022-11-24T16:18:39;9.77;;;7.10;;
40931;SDS011;36257;46.052;12.540;2022-11-24T16:21:06;8.93;;;7.40;;
40931;SDS011;36257;46.052;12.540;2022-11-24T16:23:32;10.40;;;8.30;;
40931;SDS011;36257;46.052;12.540;2022-11-24T16:25:59;8.40;;;7.60;;
40931;SDS011;36257;46.052;12.540;2022-11-24T16:28:26;9.17;;;8.07;;
40931;SDS011;36257;46.052;12.540;2022-11-24T16:30:51;9.15;;;7.30;;
40931;SDS011;36257;46.052;12.540;2022-11-24T16:33:17;11.23;;;6.55;;
40931;SDS011;36257;46.052;12.540;2022-11-24T16:35:45;7.55;;;6.85;;
40931;SDS011;36257;46.052;12.540;2022-11-24T16:38:15;10.68;;;7.88;;
40931;SDS011;36257;46.052;12.540;2022-11-24T16:40:42;10.93;;;9.30;;
40931;SDS011;36257;46.052;12.540;2022-11-24T16:43:08;15.85;;;11.27;;
40931;SDS011;36257;46.052;12.540;2022-11-24T16:45:33;11.80;;;9.02;;
40931;SDS011;36257;46.052;12.540;2022-11-24T16:47:59;8.13;;;6.95;;
40931;SDS011;36257;46.052;12.540;2022-11-24T16:50:25;9.77;;;7.78;;
40931;SDS011;36257;46.052;12.540;2022-11-24T16:52:51;11.55;;;8.60;;
40931;SDS011;36257;46.052;12.540;2022-11-24T16:55:16;13.60;;;9.85;;
40931;SDS011;36257;46.052;12.540;2022-11-24T16:57:42;9.95;;;7.82;;
40931;SDS011;36257;46.052;12.540;2022-11-24T17:00:08;7.25;;;6.50;;
40931;SDS011;36257;46.052;12.540;2022-11-24T17:02:34;7.70;;;7.00;;
40931;SDS011;36257;46.052;12.540;2022-11-24T17:05:00;6.40;;;5.90;;
40931;SDS011;36257;46.052;12.540;2022-11-24T17:07:26;7.35;;;6.65;;
40931;SDS011;36257;46.052;12.540;2022-11-24T17:09:51;9.82;;;8.00;;
40931;SDS011;36257;46.052;12.540;2022-11-24T17:12:17;6.90;;;6.30;;
40931;SDS011;36257;46.052;12.540;2022-11-24T17:14:42;10.00;;;8.02;;
40931;SDS011;36257;46.052;12.540;2022-11-24T17:17:08;7.78;;;6.90;;
40931;SDS011;36257;46.052;12.540;2022-11-24T17:19:34;7.78;;;6.60;;
40931;SDS011;36257;46.052;12.540;2022-11-24T17:21:59;8.02;;;6.82;;
40931;SDS011;36257;46.052;12.540;2022-11-24T17:24:25;6.60;;;5.90;;